首页
METAR-TAF:

METAR-TAF

机场 :

麦克斯韦-甘特空军基地

蒙哥马利, 阿拉巴马州, 美国

纬度: 32-23N, 经度: 086-22W, 海拔: 51米

当前天气观测

该预报发布于31分钟前的18:33 UTC
风速4节,风向
温度 30°C
湿度 70%
气压 1019 hPa
能見度: 16.1公里
散云层高于3400英尺
散云层高于4800英尺
多云层高于10000英尺
多云层高于15000英尺
小毛毛雨

METAR: KMXF 241833Z AUTO 36004KT 10SM -DZ SCT034 SCT048 BKN100 BKN150 30/24 A3010 RMK AO2 LTG DSNT W DZB33 SLP194

时间: 14:04 (19:04 UTC)

预报

该预报发布于1小时和49分钟前的17:15 UTC
预报有效从24日的 17点(UTC)到 25日的 17点(UTC)
风速6节,风向多变
能见度10公里或以上
少量云层高于5000英尺
多云层高于20000英尺
多云层高于22000英尺
短暂存在
从 24日的 17点(UTC)到 25日的 02点(UTC)
风速15节,风向多变,有时为25节阵风
能見度: 4800
多云层高于1800英尺, 积雨云.
阴天层高于2600英尺
雷暴, 小雨
成为
从 25日的 01点(UTC)到 25日的 02点(UTC)
风速6节,风向多变
能見度: 4800
阴天层高于300英尺
小阵雨
成为
从 25日的 14点(UTC)到 25日的 15点(UTC)
风速6节,风向多变
能見度: 4800
多云层高于1100英尺
小阵雨
短暂存在
从 25日的 14点(UTC)到 25日的 17点(UTC)
风速25节,风向多变,有时为30节阵风
能見度: 4800
多云层高于1100英尺, 积雨云.
阴天层高于1800英尺
雷暴, 小雨,

TAF: KMXF 241715Z 2417/2517 VRB06KT 9999 FEW050 BKN200 BKN220 QNH3010INS TEMPO 2417/2502 VRB15G25KT 4800 -TSRA BKN018CB OVC026 BECMG 2501/2502 VRB06KT 4800 -SHRA OVC003 QNH3007INS BECMG 2514/2515 VRB06KT 4800 -SHRA BKN011 QNH3009INS TEMPO 2514/2517 VRB25G30KT 4800 -TSRA BKN011CB OVC018 TX32/2418Z TN23/2417Z

超过4000个机场的气象观测和天气预报(METAR&TAF报告)。

可查询的气象台以黄色和红色小点在地图上表示。

将鼠标移到小点上方,可查看气象台名称。

然后点击查看天气观测和预报。

如需切换地图:点击带黑十字的绿色按钮放大地图;点击带横线的绿色按钮缩小地图;或者点击绿色箭头查看邻近地区的地图。


METAR-TAF: